sensor_id;sensor_type;location;lat;lon;timestamp;pressure;altitude;pressure_sealevel;temperature;humidity
58373;BME280;44177;43.356;27.672;2022-11-15T00:00:23;98854.84;;;12.62;51.85
58373;BME280;44177;43.356;27.672;2022-11-15T00:02:49;98851.28;;;12.61;52.04
58373;BME280;44177;43.356;27.672;2022-11-15T00:05:14;98848.53;;;12.61;51.92
58373;BME280;44177;43.356;27.672;2022-11-15T00:07:40;98858.72;;;12.61;52.07
58373;BME280;44177;43.356;27.672;2022-11-15T00:10:05;98848.06;;;12.59;51.79
58373;BME280;44177;43.356;27.672;2022-11-15T00:12:31;98848.06;;;12.59;51.76
58373;BME280;44177;43.356;27.672;2022-11-15T00:14:56;98851.63;;;12.60;52.04
58373;BME280;44177;43.356;27.672;2022-11-15T00:17:22;98831.34;;;12.48;51.82
58373;BME280;44177;43.356;27.672;2022-11-15T00:19:47;98849.56;;;12.57;52.03
58373;BME280;44177;43.356;27.672;2022-11-15T00:22:13;98848.91;;;12.60;51.75
58373;BME280;44177;43.356;27.672;2022-11-15T00:24:38;98851.63;;;12.60;51.94
58373;BME280;44177;43.356;27.672;2022-11-15T00:27:03;98841.81;;;12.59;52.06
58373;BME280;44177;43.356;27.672;2022-11-15T00:29:29;98848.06;;;12.59;51.84
58373;BME280;44177;43.356;27.672;2022-11-15T00:31:54;98838.31;;;12.58;51.79
58373;BME280;44177;43.356;27.672;2022-11-15T00:34:20;98839.09;;;12.59;51.80
58373;BME280;44177;43.356;27.672;2022-11-15T00:36:45;98845.69;;;12.58;52.08
58373;BME280;44177;43.356;27.672;2022-11-15T00:39:10;98833.97;;;12.57;51.79
58373;BME280;44177;43.356;27.672;2022-11-15T00:41:36;98839.44;;;12.57;52.00
58373;BME280;44177;43.356;27.672;2022-11-15T00:44:01;98835.56;;;12.58;52.11
58373;BME280;44177;43.356;27.672;2022-11-15T00:46:27;98828.38;;;12.54;51.79
58373;BME280;44177;43.356;27.672;2022-11-15T00:48:52;98828.50;;;12.57;51.98
58373;BME280;44177;43.356;27.672;2022-11-15T00:51:18;98830.88;;;12.59;52.05
58373;BME280;44177;43.356;27.672;2022-11-15T00:53:43;98826.53;;;12.58;51.68
58373;BME280;44177;43.356;27.672;2022-11-15T00:56:09;98828.50;;;12.57;51.83
58373;BME280;44177;43.356;27.672;2022-11-15T00:58:34;98828.50;;;12.57;52.01
58373;BME280;44177;43.356;27.672;2022-11-15T01:01:07;98814.91;;;12.48;51.88
58373;BME280;44177;43.356;27.672;2022-11-15T01:03:34;98815.84;;;12.53;52.05
58373;BME280;44177;43.356;27.672;2022-11-15T01:06:00;98821.41;;;12.56;52.00
58373;BME280;44177;43.356;27.672;2022-11-15T01:08:26;98816.72;;;12.57;51.87
58373;BME280;44177;43.356;27.672;2022-11-15T01:10:51;98815.94;;;12.56;51.94
58373;BME280;44177;43.356;27.672;2022-11-15T01:13:17;98821.41;;;12.56;51.70
58373;BME280;44177;43.356;27.672;2022-11-15T01:15:43;98824.16;;;12.56;52.00
58373;BME280;44177;43.356;27.672;2022-11-15T01:18:09;98819.03;;;12.55;51.95
58373;BME280;44177;43.356;27.672;2022-11-15T01:20:38;98824.84;;;12.53;51.97
58373;BME280;44177;43.356;27.672;2022-11-15T01:23:04;98820.97;;;12.54;52.05
58373;BME280;44177;43.356;27.672;2022-11-15T01:25:29;98826.06;;;12.56;51.91
58373;BME280;44177;43.356;27.672;2022-11-15T01:27:54;98818.47;;;12.49;51.93
58373;BME280;44177;43.356;27.672;2022-11-15T01:30:20;98826.91;;;12.56;52.01
58373;BME280;44177;43.356;27.672;2022-11-15T01:32:45;98815.13;;;12.56;51.80
58373;BME280;44177;43.356;27.672;2022-11-15T01:35:11;98820.59;;;12.56;51.75
58373;BME280;44177;43.356;27.672;2022-11-15T01:37:36;98814.34;;;12.55;51.90
58373;BME280;44177;43.356;27.672;2022-11-15T01:40:02;98801.59;;;12.47;52.14
58373;BME280;44177;43.356;27.672;2022-11-15T01:42:28;98818.22;;;12.54;52.00
58373;BME280;44177;43.356;27.672;2022-11-15T01:44:54;98817.09;;;12.55;51.72
58373;BME280;44177;43.356;27.672;2022-11-15T01:47:29;98817.09;;;12.55;51.85
58373;BME280;44177;43.356;27.672;2022-11-15T01:50:04;98807.28;;;12.54;51.64
58373;BME280;44177;43.356;27.672;2022-11-15T01:52:32;98814.69;;;12.54;51.78
58373;BME280;44177;43.356;27.672;2022-11-15T01:55:06;98813.09;;;12.53;52.03
58373;BME280;44177;43.356;27.672;2022-11-15T01:57:33;98805.69;;;12.53;51.83
58373;BME280;44177;43.356;27.672;2022-11-15T02:00:00;98807.28;;;12.54;51.74
58373;BME280;44177;43.356;27.672;2022-11-15T02:02:26;98794.72;;;12.53;52.01
58373;BME280;44177;43.356;27.672;2022-11-15T02:04:51;98792.00;;;12.53;51.89
58373;BME280;44177;43.356;27.672;2022-11-15T02:07:19;98799.41;;;12.53;52.12
58373;BME280;44177;43.356;27.672;2022-11-15T02:09:45;98801.34;;;12.52;52.16
58373;BME280;44177;43.356;27.672;2022-11-15T02:12:17;98807.63;;;12.53;51.80
58373;BME280;44177;43.356;27.672;2022-11-15T02:14:47;98798.59;;;12.52;51.89
58373;BME280;44177;43.356;27.672;2022-11-15T02:20:08;98802.47;;;12.51;52.13
58373;BME280;44177;43.356;27.672;2022-11-15T02:25:39;98800.91;;;12.50;51.73
58373;BME280;44177;43.356;27.672;2022-11-15T02:30:47;98794.63;;;12.50;52.14
58373;BME280;44177;43.356;27.672;2022-11-15T02:38:19;98788.00;;;12.51;51.92
58373;BME280;44177;43.356;27.672;2022-11-15T02:41:07;98782.88;;;12.49;51.87
58373;BME280;44177;43.356;27.672;2022-11-15T02:43:43;98786.75;;;12.48;52.01
58373;BME280;44177;43.356;27.672;2022-11-15T02:46:38;98785.16;;;12.47;51.84
58373;BME280;44177;43.356;27.672;2022-11-15T02:49:39;98782.44;;;12.47;51.86
58373;BME280;44177;43.356;27.672;2022-11-15T02:52:06;98780.47;;;12.47;52.10
58373;BME280;44177;43.356;27.672;2022-11-15T02:54:33;98773.09;;;12.48;52.10
58373;BME280;44177;43.356;27.672;2022-11-15T02:57:12;98780.47;;;12.47;52.04
58373;BME280;44177;43.356;27.672;2022-11-15T03:03:00;98773.09;;;12.48;52.08
58373;BME280;44177;43.356;27.672;2022-11-15T03:08:19;98774.22;;;12.47;52.16
58373;BME280;44177;43.356;27.672;2022-11-15T03:13:37;98774.22;;;12.47;51.87
58373;BME280;44177;43.356;27.672;2022-11-15T03:18:48;98756.00;;;12.39;52.16
58373;BME280;44177;43.356;27.672;2022-11-15T03:21:18;98758.47;;;12.44;52.16
58373;BME280;44177;43.356;27.672;2022-11-15T03:23:47;98763.28;;;12.47;51.94
58373;BME280;44177;43.356;27.672;2022-11-15T03:26:15;98756.22;;;12.46;52.14
58373;BME280;44177;43.356;27.672;2022-11-15T03:31:16;98753.13;;;12.47;51.92
58373;BME280;44177;43.356;27.672;2022-11-15T03:34:04;98756.22;;;12.46;51.94
58373;BME280;44177;43.356;27.672;2022-11-15T03:36:33;98743.09;;;12.39;52.30
58373;BME280;44177;43.356;27.672;2022-11-15T03:39:02;98746.06;;;12.46;52.00
58373;BME280;44177;43.356;27.672;2022-11-15T03:41:39;98742.88;;;12.44;52.16
58373;BME280;44177;43.356;27.672;2022-11-15T03:44:26;98738.19;;;12.45;52.15
58373;BME280;44177;43.356;27.672;2022-11-15T03:47:08;98741.75;;;12.45;51.87
58373;BME280;44177;43.356;27.672;2022-11-15T03:49:37;98738.19;;;12.45;51.86
58373;BME280;44177;43.356;27.672;2022-11-15T03:52:04;98729.19;;;12.44;52.09
58373;BME280;44177;43.356;27.672;2022-11-15T03:54:30;98735.47;;;12.45;51.94
58373;BME280;44177;43.356;27.672;2022-11-15T03:56:56;98735.47;;;12.45;51.72
58373;BME280;44177;43.356;27.672;2022-11-15T03:59:22;98738.19;;;12.45;52.08
58373;BME280;44177;43.356;27.672;2022-11-15T04:01:47;98738.19;;;12.45;52.10
58373;BME280;44177;43.356;27.672;2022-11-15T04:04:13;98729.19;;;12.44;51.95
58373;BME280;44177;43.356;27.672;2022-11-15T04:06:38;98727.25;;;12.45;51.97
58373;BME280;44177;43.356;27.672;2022-11-15T04:09:04;98736.59;;;12.44;52.17
58373;BME280;44177;43.356;27.672;2022-11-15T04:11:29;98731.13;;;12.44;51.91
58373;BME280;44177;43.356;27.672;2022-11-15T04:13:54;98736.59;;;12.44;51.76
58373;BME280;44177;43.356;27.672;2022-11-15T04:16:20;98740.50;;;12.43;51.92
58373;BME280;44177;43.356;27.672;2022-11-15T04:18:45;98740.94;;;12.45;51.83
58373;BME280;44177;43.356;27.672;2022-11-15T04:21:31;98738.91;;;12.42;52.00
58373;BME280;44177;43.356;27.672;2022-11-15T04:24:15;98704.84;;;12.27;52.03
58373;BME280;44177;43.356;27.672;2022-11-15T04:26:40;98730.69;;;12.42;51.90
58373;BME280;44177;43.356;27.672;2022-11-15T04:29:06;98719.75;;;12.42;51.79
58373;BME280;44177;43.356;27.672;2022-11-15T04:31:50;98729.56;;;12.43;51.94
58373;BME280;44177;43.356;27.672;2022-11-15T04:34:15;98723.28;;;12.42;51.87
58373;BME280;44177;43.356;27.672;2022-11-15T04:36:41;98724.88;;;12.43;52.11
58373;BME280;44177;43.356;27.672;2022-11-15T04:39:25;98722.47;;;12.42;51.75
58373;BME280;44177;43.356;27.672;2022-11-15T04:41:50;98727.97;;;12.42;52.14
58373;BME280;44177;43.356;27.672;2022-11-15T04:44:16;98722.47;;;12.42;52.07
58373;BME280;44177;43.356;27.672;2022-11-15T04:46:41;98723.63;;;12.41;52.14
58373;BME280;44177;43.356;27.672;2022-11-15T04:49:06;98729.56;;;12.43;51.96
58373;BME280;44177;43.356;27.672;2022-11-15T04:51:33;98720.88;;;12.41;52.08
58373;BME280;44177;43.356;27.672;2022-11-15T04:53:58;98725.22;;;12.42;52.14
58373;BME280;44177;43.356;27.672;2022-11-15T04:56:24;98722.47;;;12.42;52.22
58373;BME280;44177;43.356;27.672;2022-11-15T04:58:49;98713.81;;;12.40;52.19
58373;BME280;44177;43.356;27.672;2022-11-15T05:01:15;98715.41;;;12.41;51.93
58373;BME280;44177;43.356;27.672;2022-11-15T05:03:42;98718.16;;;12.41;52.26
58373;BME280;44177;43.356;27.672;2022-11-15T05:06:26;98715.41;;;12.41;52.04
58373;BME280;44177;43.356;27.672;2022-11-15T05:08:52;98707.44;;;12.36;51.92
58373;BME280;44177;43.356;27.672;2022-11-15T05:11:17;98715.75;;;12.39;51.84
58373;BME280;44177;43.356;27.672;2022-11-15T05:13:43;98709.03;;;12.37;51.79
58373;BME280;44177;43.356;27.672;2022-11-15T05:16:08;98708.59;;;12.35;51.87
58373;BME280;44177;43.356;27.672;2022-11-15T05:18:34;98712.22;;;12.39;52.07
58373;BME280;44177;43.356;27.672;2022-11-15T05:21:04;98716.91;;;12.38;51.83
58373;BME280;44177;43.356;27.672;2022-11-15T05:23:29;98718.47;;;12.39;52.04
58373;BME280;44177;43.356;27.672;2022-11-15T05:25:59;98725.13;;;12.38;51.84
58373;BME280;44177;43.356;27.672;2022-11-15T05:28:24;98728.63;;;12.39;51.89
58373;BME280;44177;43.356;27.672;2022-11-15T05:30:50;98720.44;;;12.39;51.75
58373;BME280;44177;43.356;27.672;2022-11-15T05:33:15;98716.91;;;12.38;51.99
58373;BME280;44177;43.356;27.672;2022-11-15T05:35:44;98714.50;;;12.37;51.86
58373;BME280;44177;43.356;27.672;2022-11-15T05:38:11;98719.97;;;12.37;52.06
58373;BME280;44177;43.356;27.672;2022-11-15T05:40:37;98727.03;;;12.38;51.86
58373;BME280;44177;43.356;27.672;2022-11-15T05:43:03;98725.44;;;12.37;51.91
58373;BME280;44177;43.356;27.672;2022-11-15T05:45:31;98710.88;;;12.32;52.11
58373;BME280;44177;43.356;27.672;2022-11-15T05:47:59;98724.31;;;12.38;52.14
58373;BME280;44177;43.356;27.672;2022-11-15T05:50:26;98719.97;;;12.37;51.94
58373;BME280;44177;43.356;27.672;2022-11-15T05:52:54;98725.44;;;12.37;51.82
58373;BME280;44177;43.356;27.672;2022-11-15T05:55:19;98715.31;;;12.37;52.21
58373;BME280;44177;43.356;27.672;2022-11-15T05:57:45;98725.44;;;12.37;51.87
58373;BME280;44177;43.356;27.672;2022-11-15T06:00:11;98725.44;;;12.37;51.87
58373;BME280;44177;43.356;27.672;2022-11-15T06:02:36;98725.44;;;12.37;51.92
58373;BME280;44177;43.356;27.672;2022-11-15T06:05:02;98712.91;;;12.36;52.02
58373;BME280;44177;43.356;27.672;2022-11-15T06:07:29;98711.75;;;12.37;52.10
58373;BME280;44177;43.356;27.672;2022-11-15T06:09:54;98710.97;;;12.36;52.07
58373;BME280;44177;43.356;27.672;2022-11-15T06:12:20;98716.44;;;12.36;52.10
58373;BME280;44177;43.356;27.672;2022-11-15T06:14:45;98721.91;;;12.36;51.95
58373;BME280;44177;43.356;27.672;2022-11-15T06:17:11;98721.91;;;12.36;52.13
58373;BME280;44177;43.356;27.672;2022-11-15T06:19:36;98722.69;;;12.37;52.13
58373;BME280;44177;43.356;27.672;2022-11-15T06:22:02;98724.66;;;12.36;51.89
58373;BME280;44177;43.356;27.672;2022-11-15T06:24:27;98715.31;;;12.37;51.85
58373;BME280;44177;43.356;27.672;2022-11-15T06:26:53;98723.84;;;12.36;52.05
58373;BME280;44177;43.356;27.672;2022-11-15T06:29:18;98725.44;;;12.37;51.93
58373;BME280;44177;43.356;27.672;2022-11-15T06:31:43;98728.19;;;12.37;52.06
58373;BME280;44177;43.356;27.672;2022-11-15T06:34:09;98719.19;;;12.36;51.82
58373;BME280;44177;43.356;27.672;2022-11-15T06:36:35;98719.53;;;12.35;52.08
58373;BME280;44177;43.356;27.672;2022-11-15T06:39:02;98713.97;;;12.31;52.00
58373;BME280;44177;43.356;27.672;2022-11-15T06:41:28;98725.78;;;12.35;52.15
58373;BME280;44177;43.356;27.672;2022-11-15T06:43:54;98725.00;;;12.35;52.12
58373;BME280;44177;43.356;27.672;2022-11-15T06:46:19;98732.06;;;12.36;51.77
58373;BME280;44177;43.356;27.672;2022-11-15T06:48:44;98713.16;;;12.30;51.89
58373;BME280;44177;43.356;27.672;2022-11-15T06:51:10;98727.75;;;12.35;52.05
58373;BME280;44177;43.356;27.672;2022-11-15T06:53:36;98725.00;;;12.35;52.00
58373;BME280;44177;43.356;27.672;2022-11-15T06:56:04;98723.41;;;12.34;51.83
58373;BME280;44177;43.356;27.672;2022-11-15T06:58:30;98733.22;;;12.35;52.21
58373;BME280;44177;43.356;27.672;2022-11-15T07:01:00;98722.28;;;12.35;52.12
58373;BME280;44177;43.356;27.672;2022-11-15T07:03:26;98715.22;;;12.34;51.95
58373;BME280;44177;43.356;27.672;2022-11-15T07:05:53;98713.25;;;12.34;51.80
58373;BME280;44177;43.356;27.672;2022-11-15T07:08:20;98726.94;;;12.34;51.83
58373;BME280;44177;43.356;27.672;2022-11-15T07:10:45;98716.00;;;12.34;52.04
58373;BME280;44177;43.356;27.672;2022-11-15T07:13:11;98714.06;;;12.35;52.10
58373;BME280;44177;43.356;27.672;2022-11-15T07:15:36;98721.47;;;12.34;52.01
58373;BME280;44177;43.356;27.672;2022-11-15T07:18:02;98721.09;;;12.36;52.09
58373;BME280;44177;43.356;27.672;2022-11-15T07:20:27;98721.47;;;12.34;51.71
58373;BME280;44177;43.356;27.672;2022-11-15T07:23:02;98724.19;;;12.34;51.76
58373;BME280;44177;43.356;27.672;2022-11-15T07:25:28;98725.34;;;12.33;52.01
58373;BME280;44177;43.356;27.672;2022-11-15T07:27:57;98723.41;;;12.34;51.97
58373;BME280;44177;43.356;27.672;2022-11-15T07:30:24;98730.47;;;12.35;51.74
58373;BME280;44177;43.356;27.672;2022-11-15T07:32:57;98727.28;;;12.32;51.73
58373;BME280;44177;43.356;27.672;2022-11-15T07:35:23;98723.41;;;12.34;51.98
58373;BME280;44177;43.356;27.672;2022-11-15T07:38:02;98720.69;;;12.34;51.68
58373;BME280;44177;43.356;27.672;2022-11-15T07:40:30;98728.88;;;12.34;51.94
58373;BME280;44177;43.356;27.672;2022-11-15T07:43:04;98717.47;;;12.31;51.92
58373;BME280;44177;43.356;27.672;2022-11-15T07:45:30;98719.88;;;12.33;51.81
58373;BME280;44177;43.356;27.672;2022-11-15T07:47:55;98717.38;;;12.28;51.95
58373;BME280;44177;43.356;27.672;2022-11-15T07:50:23;98718.25;;;12.32;51.90
58373;BME280;44177;43.356;27.672;2022-11-15T07:52:56;98719.06;;;12.32;51.69
58373;BME280;44177;43.356;27.672;2022-11-15T07:55:23;98714.38;;;12.33;51.82
58373;BME280;44177;43.356;27.672;2022-11-15T07:57:48;98712.47;;;12.34;51.91
58373;BME280;44177;43.356;27.672;2022-11-15T08:00:14;98719.06;;;12.32;51.58
58373;BME280;44177;43.356;27.672;2022-11-15T08:02:40;98719.88;;;12.33;51.61
58373;BME280;44177;43.356;27.672;2022-11-15T08:05:06;98721.47;;;12.34;51.67
58373;BME280;44177;43.356;27.672;2022-11-15T08:07:31;98715.22;;;12.34;51.82
58373;BME280;44177;43.356;27.672;2022-11-15T08:09:57;98714.38;;;12.33;51.79
58373;BME280;44177;43.356;27.672;2022-11-15T08:12:23;98714.84;;;12.35;51.57
58373;BME280;44177;43.356;27.672;2022-11-15T08:14:49;98721.47;;;12.34;51.83
58373;BME280;44177;43.356;27.672;2022-11-15T08:17:14;98717.59;;;12.35;51.52
58373;BME280;44177;43.356;27.672;2022-11-15T08:19:40;98718.38;;;12.36;51.71
58373;BME280;44177;43.356;27.672;2022-11-15T08:22:06;98714.50;;;12.37;51.72
58373;BME280;44177;43.356;27.672;2022-11-15T08:24:32;98710.97;;;12.36;51.72
58373;BME280;44177;43.356;27.672;2022-11-15T08:26:57;98717.22;;;12.37;51.56
58373;BME280;44177;43.356;27.672;2022-11-15T08:29:23;98714.50;;;12.37;51.59
58373;BME280;44177;43.356;27.672;2022-11-15T08:31:48;98715.31;;;12.37;51.82
58373;BME280;44177;43.356;27.672;2022-11-15T08:34:14;98709.03;;;12.37;51.69
58373;BME280;44177;43.356;27.672;2022-11-15T08:36:39;98704.38;;;12.37;51.71
58373;BME280;44177;43.356;27.672;2022-11-15T08:39:04;98699.69;;;12.38;51.49
58373;BME280;44177;43.356;27.672;2022-11-15T08:41:35;98698.91;;;12.37;51.56
58373;BME280;44177;43.356;27.672;2022-11-15T08:44:01;98693.41;;;12.37;51.46
58373;BME280;44177;43.356;27.672;2022-11-15T08:46:27;98699.69;;;12.38;51.39
58373;BME280;44177;43.356;27.672;2022-11-15T08:48:52;98690.34;;;12.39;51.70
58373;BME280;44177;43.356;27.672;2022-11-15T08:51:18;98691.94;;;12.40;51.55
58373;BME280;44177;43.356;27.672;2022-11-15T08:53:43;98684.19;;;12.42;51.39
58373;BME280;44177;43.356;27.672;2022-11-15T08:56:10;98685.06;;;12.46;51.21
58373;BME280;44177;43.356;27.672;2022-11-15T08:58:36;98683.47;;;12.45;51.44
58373;BME280;44177;43.356;27.672;2022-11-15T09:01:03;98672.53;;;12.45;51.25
58373;BME280;44177;43.356;27.672;2022-11-15T09:03:29;98672.53;;;12.45;51.20
58373;BME280;44177;43.356;27.672;2022-11-15T09:05:56;98671.75;;;12.44;51.23
58373;BME280;44177;43.356;27.672;2022-11-15T09:08:22;98672.19;;;12.46;51.29
58373;BME280;44177;43.356;27.672;2022-11-15T09:10:48;98669.78;;;12.45;51.09
58373;BME280;44177;43.356;27.672;2022-11-15T09:13:13;98665.44;;;12.44;51.19
58373;BME280;44177;43.356;27.672;2022-11-15T09:15:39;98651.25;;;12.38;51.11
58373;BME280;44177;43.356;27.672;2022-11-15T09:18:04;98661.94;;;12.43;51.31
58373;BME280;44177;43.356;27.672;2022-11-15T09:20:30;98653.63;;;12.40;51.19
58373;BME280;44177;43.356;27.672;2022-11-15T09:23:01;98656.81;;;12.42;51.39
58373;BME280;44177;43.356;27.672;2022-11-15T09:25:28;98659.56;;;12.42;51.40
58373;BME280;44177;43.356;27.672;2022-11-15T09:27:54;98651.34;;;12.42;51.36
58373;BME280;44177;43.356;27.672;2022-11-15T09:30:19;98654.09;;;12.42;51.20
58373;BME280;44177;43.356;27.672;2022-11-15T09:32:45;98645.88;;;12.42;51.15
58373;BME280;44177;43.356;27.672;2022-11-15T09:35:10;98646.66;;;12.42;51.10
58373;BME280;44177;43.356;27.672;2022-11-15T09:37:36;98637.31;;;12.43;51.17
58373;BME280;44177;43.356;27.672;2022-11-15T09:40:02;98636.53;;;12.43;51.16
58373;BME280;44177;43.356;27.672;2022-11-15T09:52:57;98630.16;;;12.39;51.39
58373;BME280;44177;43.356;27.672;2022-11-15T09:55:32;98624.66;;;12.39;51.38
58373;BME280;44177;43.356;27.672;2022-11-15T09:58:07;98619.97;;;12.39;51.09
58373;BME280;44177;43.356;27.672;2022-11-15T10:00:40;98621.94;;;12.39;51.47
58373;BME280;44177;43.356;27.672;2022-11-15T10:03:14;98619.19;;;12.39;51.17
58373;BME280;44177;43.356;27.672;2022-11-15T10:05:46;98602.59;;;12.31;51.22
58373;BME280;44177;43.356;27.672;2022-11-15T10:10:58;98612.94;;;12.38;51.38
58373;BME280;44177;43.356;27.672;2022-11-15T10:13:29;98599.25;;;12.38;51.06
58373;BME280;44177;43.356;27.672;2022-11-15T10:16:10;98601.66;;;12.40;51.21
58373;BME280;44177;43.356;27.672;2022-11-15T10:24:12;98593.53;;;12.43;51.06
58373;BME280;44177;43.356;27.672;2022-11-15T10:26:39;98585.69;;;12.42;51.17
58373;BME280;44177;43.356;27.672;2022-11-15T10:29:10;98581.81;;;12.43;51.12
58373;BME280;44177;43.356;27.672;2022-11-15T10:31:39;98581.81;;;12.43;51.09
58373;BME280;44177;43.356;27.672;2022-11-15T10:36:47;98568.44;;;12.41;51.33
58373;BME280;44177;43.356;27.672;2022-11-15T10:39:19;98568.34;;;12.38;51.09
58373;BME280;44177;43.356;27.672;2022-11-15T10:41:44;98565.72;;;12.41;51.33
58373;BME280;44177;43.356;27.672;2022-11-15T10:46:41;98551.25;;;12.41;51.14
58373;BME280;44177;43.356;27.672;2022-11-15T10:49:28;98555.13;;;12.40;51.30
58373;BME280;44177;43.356;27.672;2022-11-15T10:54:33;98542.59;;;12.39;51.20
58373;BME280;44177;43.356;27.672;2022-11-15T10:57:25;98536.34;;;12.38;51.27
58373;BME280;44177;43.356;27.672;2022-11-15T11:00:02;98538.72;;;12.40;51.13
58373;BME280;44177;43.356;27.672;2022-11-15T11:05:00;98531.28;;;12.40;51.19
58373;BME280;44177;43.356;27.672;2022-11-15T11:07:31;98523.19;;;12.44;51.29
58373;BME280;44177;43.356;27.672;2022-11-15T11:10:03;98519.75;;;12.47;51.00
58373;BME280;44177;43.356;27.672;2022-11-15T11:12:31;98510.84;;;12.50;50.93
58373;BME280;44177;43.356;27.672;2022-11-15T11:14:58;98508.53;;;12.52;50.80
58373;BME280;44177;43.356;27.672;2022-11-15T11:17:49;98504.66;;;12.53;50.78
58373;BME280;44177;43.356;27.672;2022-11-15T11:20:32;98496.13;;;12.55;50.62
58373;BME280;44177;43.356;27.672;2022-11-15T11:25:35;98495.31;;;12.54;50.85
58373;BME280;44177;43.356;27.672;2022-11-15T11:28:18;98489.06;;;12.54;50.85
58373;BME280;44177;43.356;27.672;2022-11-15T11:31:28;98485.06;;;12.51;50.99
58373;BME280;44177;43.356;27.672;2022-11-15T11:45:37;98466.16;;;12.46;51.14
58373;BME280;44177;43.356;27.672;2022-11-15T11:47:39;98460.25;;;12.44;50.86
58373;BME280;44177;43.356;27.672;2022-11-15T11:50:18;98452.03;;;12.44;51.15
58373;BME280;44177;43.356;27.672;2022-11-15T11:52:57;98453.63;;;12.45;51.28
58373;BME280;44177;43.356;27.672;2022-11-15T11:55:38;98457.50;;;12.44;51.01
58373;BME280;44177;43.356;27.672;2022-11-15T11:58:29;98452.03;;;12.44;51.30
58373;BME280;44177;43.356;27.672;2022-11-15T12:01:22;98442.28;;;12.43;51.30
58373;BME280;44177;43.356;27.672;2022-11-15T12:07:08;98435.63;;;12.44;51.43
58373;BME280;44177;43.356;27.672;2022-11-15T12:14:57;98434.41;;;12.41;51.15
58373;BME280;44177;43.356;27.672;2022-11-15T12:17:27;98433.63;;;12.41;51.12
58373;BME280;44177;43.356;27.672;2022-11-15T12:19:57;98424.59;;;12.40;51.26
58373;BME280;44177;43.356;27.672;2022-11-15T12:22:25;98421.06;;;12.40;51.25
58373;BME280;44177;43.356;27.672;2022-11-15T12:25:00;98425.84;;;12.43;51.24
58373;BME280;44177;43.356;27.672;2022-11-15T12:29:58;98419.13;;;12.40;51.08
58373;BME280;44177;43.356;27.672;2022-11-15T12:32:34;98404.22;;;12.38;51.28
58373;BME280;44177;43.356;27.672;2022-11-15T12:35:03;98406.59;;;12.39;51.26
58373;BME280;44177;43.356;27.672;2022-11-15T12:47:24;98397.59;;;12.39;51.38
58373;BME280;44177;43.356;27.672;2022-11-15T12:49:50;98401.47;;;12.38;51.32
58373;BME280;44177;43.356;27.672;2022-11-15T12:52:17;98391.69;;;12.37;51.58
58373;BME280;44177;43.356;27.672;2022-11-15T13:17:50;98358.84;;;12.37;51.37
58373;BME280;44177;43.356;27.672;2022-11-15T13:30:50;98347.50;;;12.35;51.49
58373;BME280;44177;43.356;27.672;2022-11-15T13:33:20;98347.50;;;12.35;51.28
58373;BME280;44177;43.356;27.672;2022-11-15T13:35:49;98342.81;;;12.35;51.37
58373;BME280;44177;43.356;27.672;2022-11-15T13:38:36;98341.13;;;12.30;51.40
58373;BME280;44177;43.356;27.672;2022-11-15T13:41:19;98343.16;;;12.34;51.12
58373;BME280;44177;43.356;27.672;2022-11-15T13:43:46;98337.69;;;12.34;51.10
58373;BME280;44177;43.356;27.672;2022-11-15T13:46:17;98337.69;;;12.34;51.46
58373;BME280;44177;43.356;27.672;2022-11-15T13:48:45;98330.28;;;12.34;51.14
58373;BME280;44177;43.356;27.672;2022-11-15T13:51:19;98332.22;;;12.34;51.31
58373;BME280;44177;43.356;27.672;2022-11-15T13:53:50;98330.63;;;12.32;51.10
58373;BME280;44177;43.356;27.672;2022-11-15T13:56:18;98332.22;;;12.34;51.29
58373;BME280;44177;43.356;27.672;2022-11-15T13:58:45;98325.16;;;12.32;51.33
58373;BME280;44177;43.356;27.672;2022-11-15T14:01:17;98324.34;;;12.32;51.44
58373;BME280;44177;43.356;27.672;2022-11-15T14:04:01;98321.53;;;12.28;51.23
58373;BME280;44177;43.356;27.672;2022-11-15T14:06:29;98319.25;;;12.30;51.53
58373;BME280;44177;43.356;27.672;2022-11-15T14:11:35;98311.72;;;12.27;51.28
58373;BME280;44177;43.356;27.672;2022-11-15T14:19:09;98312.19;;;12.29;51.40
58373;BME280;44177;43.356;27.672;2022-11-15T14:21:35;98303.97;;;12.29;51.19
58373;BME280;44177;43.356;27.672;2022-11-15T14:24:33;98306.25;;;12.27;51.30
58373;BME280;44177;43.356;27.672;2022-11-15T14:27:16;98307.44;;;12.26;51.17
58373;BME280;44177;43.356;27.672;2022-11-15T14:29:42;98297.28;;;12.27;51.30
58373;BME280;44177;43.356;27.672;2022-11-15T14:32:22;98295.69;;;12.26;51.43
58373;BME280;44177;43.356;27.672;2022-11-15T14:34:53;98289.44;;;12.25;51.29
58373;BME280;44177;43.356;27.672;2022-11-15T14:37:29;98294.09;;;12.25;51.36
58373;BME280;44177;43.356;27.672;2022-11-15T14:39:58;98280.78;;;12.23;51.23
58373;BME280;44177;43.356;27.672;2022-11-15T14:42:24;98278.75;;;12.20;51.46
58373;BME280;44177;43.356;27.672;2022-11-15T14:44:50;98286.69;;;12.25;51.53
58373;BME280;44177;43.356;27.672;2022-11-15T14:47:15;98282.38;;;12.24;51.52
58373;BME280;44177;43.356;27.672;2022-11-15T14:49:41;98274.94;;;12.25;51.30
58373;BME280;44177;43.356;27.672;2022-11-15T14:52:33;98277.69;;;12.25;51.30
58373;BME280;44177;43.356;27.672;2022-11-15T14:55:01;98278.50;;;12.25;51.39
58373;BME280;44177;43.356;27.672;2022-11-15T14:57:28;98285.13;;;12.24;51.52
58373;BME280;44177;43.356;27.672;2022-11-15T14:59:53;98278.06;;;12.23;51.53
58373;BME280;44177;43.356;27.672;2022-11-15T15:02:23;98276.09;;;12.24;51.39
58373;BME280;44177;43.356;27.672;2022-11-15T15:04:49;98279.19;;;12.22;51.29
58373;BME280;44177;43.356;27.672;2022-11-15T15:07:15;98278.06;;;12.23;51.46
58373;BME280;44177;43.356;27.672;2022-11-15T15:09:42;98268.25;;;12.22;51.30
58373;BME280;44177;43.356;27.672;2022-11-15T15:12:17;98268.25;;;12.22;51.30